Time;durP1;ratioP1;P1;durP2;ratioP2;P2;SDS_P1;SDS_P2;PMS_P1;PMS_P2;Temp;Humidity;BMP_temperature;BMP_pressure;BME280_temperature;BME280_humidity;BME280_pressure;Samples;Min_cycle;Max_cycle;Signal;HPM_P1;HPM_P2
2022/08/03 00:01:50;;;;;;;5.00;4.70;;;;;;;17.43;100.00;99546.00;5058940;28;20234;-75
2022/08/03 00:04:16;;;;;;;4.77;4.37;;;;;;;17.41;100.00;99545.44;5057256;28;20236;-74
2022/08/03 00:06:43;;;;;;;5.10;4.70;;;;;;;17.39;100.00;99536.78;5060736;28;20308;-75
2022/08/03 00:09:10;;;;;;;5.00;4.33;;;;;;;17.40;100.00;99537.59;5054878;28;20237;-75
2022/08/03 00:11:37;;;;;;;4.70;4.30;;;;;;;17.40;100.00;99546.53;5060484;28;20330;-74
2022/08/03 00:14:04;;;;;;;5.03;4.63;;;;;;;17.40;100.00;99548.41;5058947;28;20238;-76
2022/08/03 00:16:31;;;;;;;4.80;4.40;;;;;;;17.37;100.00;99548.94;5061392;28;20255;-75
2022/08/03 00:18:58;;;;;;;4.60;4.30;;;;;;;17.37;100.00;99547.03;5057163;28;20249;-75
2022/08/03 00:21:27;;;;;;;4.13;3.83;;;;;;;17.38;100.00;99551.38;5055763;28;20688;-75
2022/08/03 00:23:53;;;;;;;5.00;4.70;;;;;;;17.37;100.00;99552.47;5055629;28;20233;-75
2022/08/03 00:26:20;;;;;;;5.00;4.70;;;;;;;17.38;100.00;99555.97;5052116;28;20253;-76
2022/08/03 00:28:48;;;;;;;4.47;4.07;;;;;;;17.37;100.00;99552.47;5060297;28;20705;-76
2022/08/03 00:31:14;;;;;;;5.20;4.53;;;;;;;17.38;100.00;99554.09;5051703;28;20234;-75
2022/08/03 00:33:41;;;;;;;5.33;4.53;;;;;;;17.37;100.00;99547.03;5064449;28;20239;-76
2022/08/03 00:36:28;;;;;;;4.60;4.30;;;;;;;17.36;100.00;99545.41;5060102;28;20289;-75
2022/08/03 00:38:55;;;;;;;4.47;4.17;;;;;;;17.36;100.00;99548.13;5054169;28;20673;-76
2022/08/03 00:41:22;;;;;;;4.60;4.30;;;;;;;17.35;100.00;99551.94;5057947;28;20629;-76
2022/08/03 00:43:48;;;;;;;4.53;4.23;;;;;;;17.31;100.00;99545.38;5053665;28;20223;-75
2022/08/03 00:46:15;;;;;;;4.40;4.10;;;;;;;17.29;100.00;99549.44;5052825;28;20239;-75
2022/08/03 00:48:50;;;;;;;4.83;4.43;;;;;;;17.26;100.00;99552.69;5054601;28;20233;-75
2022/08/03 00:51:18;;;;;;;4.50;4.20;;;;;;;17.23;100.00;99543.19;5055846;28;20247;-75
2022/08/03 00:53:45;;;;;;;5.13;4.60;;;;;;;17.21;100.00;99549.97;5054024;28;20231;-76
2022/08/03 00:56:13;;;;;;;4.13;3.87;;;;;;;17.15;100.00;99544.53;5054675;28;20231;-75
2022/08/03 00:58:42;;;;;;;4.40;4.10;;;;;;;17.15;100.00;99549.94;5052563;28;20233;-76
2022/08/03 01:01:11;;;;;;;4.37;3.97;;;;;;;17.14;100.00;99544.78;5055291;28;20230;-76
2022/08/03 01:03:38;;;;;;;4.93;4.30;;;;;;;17.12;100.00;99544.25;5049885;28;20340;-76
2022/08/03 01:06:19;;;;;;;4.43;4.03;;;;;;;17.10;100.00;99535.56;5058591;28;20711;-75
2022/08/03 01:09:02;;;;;;;4.43;4.13;;;;;;;17.08;100.00;99541.22;5054494;28;20222;-76
2022/08/03 01:11:54;;;;;;;4.40;4.10;;;;;;;17.06;100.00;99534.47;5052961;28;20234;-76
2022/08/03 01:14:34;;;;;;;4.23;3.93;;;;;;;17.03;100.00;99548.53;5054781;28;20713;-76
2022/08/03 01:17:26;;;;;;;4.40;4.03;;;;;;;17.01;100.00;99539.88;5051733;28;20615;-75
2022/08/03 01:20:00;;;;;;;4.70;4.30;;;;;;;16.99;100.00;99544.72;5052315;28;20234;-75
2022/08/03 01:22:49;;;;;;;4.80;4.40;;;;;;;16.97;100.00;99534.16;5057237;28;20238;-77
2022/08/03 01:25:37;;;;;;;4.57;4.10;;;;;;;16.95;100.00;99540.91;5052756;28;20720;-76
2022/08/03 01:28:32;;;;;;;4.63;4.23;;;;;;;16.91;100.00;99535.22;5052445;28;20727;-75
2022/08/03 01:31:03;;;;;;;4.60;4.13;;;;;;;16.91;100.00;99537.09;5050092;28;20261;-75
2022/08/03 01:33:36;;;;;;;4.60;4.00;;;;;;;16.85;100.00;99535.44;5057950;28;20644;-74
2022/08/03 01:36:05;;;;;;;4.63;4.20;;;;;;;16.86;100.00;99540.59;5050985;28;20322;-75
2022/08/03 01:38:35;;;;;;;4.30;3.90;;;;;;;16.80;100.00;99538.94;5056824;28;20245;-75
2022/08/03 01:41:05;;;;;;;4.20;3.90;;;;;;;16.82;100.00;99538.69;5056638;28;20693;-74
2022/08/03 01:43:32;;;;;;;4.40;4.00;;;;;;;16.79;100.00;99537.31;5050357;28;20231;-74
2022/08/03 01:46:19;;;;;;;4.23;3.90;;;;;;;16.75;100.00;99533.47;5048353;28;20256;-75
2022/08/03 01:48:47;;;;;;;4.30;3.90;;;;;;;16.68;100.00;99530.22;5050938;28;20217;-75
2022/08/03 01:51:15;;;;;;;4.67;4.27;;;;;;;16.68;100.00;99530.22;5053017;28;20272;-74
2022/08/03 01:53:43;;;;;;;4.37;4.07;;;;;;;16.65;100.00;99531.56;5065085;28;20316;-75
2022/08/03 01:56:10;;;;;;;4.17;3.87;;;;;;;16.61;100.00;99525.03;5062048;28;20223;-76
2022/08/03 01:58:38;;;;;;;3.93;3.63;;;;;;;16.59;100.00;99523.66;5061222;28;20253;-75
2022/08/03 02:01:05;;;;;;;4.53;4.13;;;;;;;16.55;100.00;99528.75;5053820;28;20961;-75
2022/08/03 02:03:36;;;;;;;4.30;3.93;;;;;;;16.53;100.00;99530.06;5060319;28;20240;-75
2022/08/03 02:06:04;;;;;;;4.10;3.77;;;;;;;16.50;100.00;99522.50;5065581;28;20229;-75
2022/08/03 02:08:51;;;;;;;3.93;3.73;;;;;;;16.47;100.00;99525.72;5060306;28;20225;-74
2022/08/03 02:11:18;;;;;;;4.00;3.70;;;;;;;16.45;100.00;99525.97;5062184;28;20234;-76
2022/08/03 02:13:46;;;;;;;4.40;4.10;;;;;;;16.46;100.00;99524.91;5063932;28;20233;-75
2022/08/03 02:16:13;;;;;;;4.63;4.30;;;;;;;16.43;100.00;99511.91;5061832;28;20641;-76
2022/08/03 02:18:41;;;;;;;4.17;3.87;;;;;;;16.43;100.00;99521.91;5061661;28;20230;-76
2022/08/03 02:21:09;;;;;;;4.60;4.20;;;;;;;16.40;100.00;99520.53;5060135;28;20658;-75
2022/08/03 02:23:37;;;;;;;4.03;3.70;;;;;;;16.38;100.00;99519.97;5069310;28;20268;-75
2022/08/03 02:26:06;;;;;;;4.60;4.17;;;;;;;16.37;100.00;99520.25;5056071;28;20237;-76
2022/08/03 02:28:39;;;;;;;4.70;4.40;;;;;;;16.33;100.00;99524.56;5052597;28;20235;-77
2022/08/03 02:31:11;;;;;;;4.63;4.20;;;;;;;16.32;100.00;99514.81;5049199;28;20620;-76
2022/08/03 02:33:42;;;;;;;4.10;3.80;;;;;;;16.30;100.00;99521.28;5043872;28;20248;-76
2022/08/03 02:36:10;;;;;;;4.23;3.93;;;;;;;16.28;100.00;99526.13;5041280;28;20612;-77
2022/08/03 02:38:40;;;;;;;4.90;4.50;;;;;;;16.21;100.00;99516.59;5039125;28;20242;-76
2022/08/03 02:41:08;;;;;;;4.63;4.30;;;;;;;16.16;100.00;99517.38;5042644;28;20897;-76
2022/08/03 02:43:36;;;;;;;4.77;4.37;;;;;;;16.17;100.00;99520.91;5045096;28;20321;-78
2022/08/03 02:46:29;;;;;;;4.30;4.00;;;;;;;16.17;100.00;99523.59;5038442;28;20225;-77
2022/08/03 02:48:58;;;;;;;4.83;4.40;;;;;;;16.15;100.00;99521.16;5040243;28;20233;-76
2022/08/03 02:51:46;;;;;;;4.63;4.33;;;;;;;16.14;100.00;99533.03;5039876;28;20257;-77
2022/08/03 02:54:15;;;;;;;5.10;4.70;;;;;;;16.12;100.00;99526.28;5046735;28;20261;-76
2022/08/03 02:56:43;;;;;;;4.80;4.40;;;;;;;16.11;100.00;99530.03;5039829;28;20345;-76
2022/08/03 02:59:10;;;;;;;4.77;4.47;;;;;;;16.10;100.00;99531.91;5046911;28;20249;-77
2022/08/03 03:01:38;;;;;;;4.50;4.20;;;;;;;16.07;100.00;99527.03;5041048;28;20229;-76
2022/08/03 03:04:05;;;;;;;4.80;4.40;;;;;;;16.05;100.00;99533.78;5042468;28;20720;-76
2022/08/03 03:06:34;;;;;;;4.93;4.53;;;;;;;16.02;100.00;99531.59;5038170;28;20233;-76
2022/08/03 03:09:02;;;;;;;4.30;4.00;;;;;;;16.00;100.00;99536.44;5041224;28;20242;-76
2022/08/03 03:11:29;;;;;;;4.87;4.47;;;;;;;15.99;100.00;99534.81;5048301;28;20320;-77
2022/08/03 03:13:56;;;;;;;5.07;4.67;;;;;;;15.96;100.00;99538.81;5042572;28;20953;-77
2022/08/03 03:16:25;;;;;;;4.80;4.50;;;;;;;15.95;100.00;99531.00;5039019;28;20227;-77
2022/08/03 03:18:52;;;;;;;4.50;4.10;;;;;;;15.94;100.00;99532.06;5041206;28;20317;-77
2022/08/03 03:21:19;;;;;;;4.80;4.40;;;;;;;15.94;100.00;99542.88;5044039;28;20232;-77
2022/08/03 03:23:47;;;;;;;4.83;4.53;;;;;;;15.93;100.00;99538.53;5040664;28;20234;-76
2022/08/03 03:26:14;;;;;;;5.03;4.63;;;;;;;15.89;100.00;99549.03;5045899;28;20229;-76
2022/08/03 03:28:41;;;;;;;5.50;5.00;;;;;;;15.88;100.00;99546.59;5046005;28;20328;-77
2022/08/03 03:31:08;;;;;;;5.40;5.00;;;;;;;15.85;100.00;99548.75;5048029;28;20610;-76
2022/08/03 03:33:36;;;;;;;5.23;4.73;;;;;;;15.84;100.00;99543.59;5052224;28;20303;-77
2022/08/03 03:36:05;;;;;;;5.37;4.97;;;;;;;15.85;100.00;99545.22;5043655;28;20324;-77
2022/08/03 03:38:32;;;;;;;5.10;4.70;;;;;;;15.85;100.00;99550.63;5047864;28;20317;-78
2022/08/03 03:40:59;;;;;;;5.17;4.77;;;;;;;15.85;100.00;99551.44;5043635;28;20248;-78
2022/08/03 03:43:26;;;;;;;5.30;4.80;;;;;;;15.88;100.00;99562.78;5044539;28;20225;-77
2022/08/03 03:45:53;;;;;;;5.20;4.80;;;;;;;15.94;100.00;99556.38;5053664;28;20320;-77
2022/08/03 03:48:20;;;;;;;5.23;4.73;;;;;;;15.95;100.00;99556.13;5056337;28;20230;-76
2022/08/03 03:50:48;;;;;;;5.20;4.70;;;;;;;15.96;100.00;99555.03;5058048;28;20319;-77
2022/08/03 03:53:15;;;;;;;5.37;4.97;;;;;;;16.06;100.00;99557.00;5058601;28;20319;-78
2022/08/03 03:55:42;;;;;;;5.57;5.17;;;;;;;16.09;100.00;99561.94;5051601;28;20245;-77
2022/08/03 03:58:27;;;;;;;5.20;4.80;;;;;;;16.15;100.00;99561.69;5053028;28;20233;-77
2022/08/03 04:00:54;;;;;;;5.40;4.90;;;;;;;16.25;100.00;99559.09;5055288;28;20221;-77
2022/08/03 04:03:21;;;;;;;5.50;5.10;;;;;;;16.64;100.00;99554.28;5053935;28;20593;-77
2022/08/03 04:11:24;;;;;;;4.93;4.53;;;;;;;18.01;100.00;99584.59;5057091;28;20711;-77
2022/08/03 04:13:59;;;;;;;5.00;4.50;;;;;;;18.56;100.00;99581.16;5061226;28;20237;-77
2022/08/03 04:16:30;;;;;;;4.87;4.40;;;;;;;18.36;100.00;99576.50;5039402;28;20226;-78
2022/08/03 04:19:04;;;;;;;4.53;4.13;;;;;;;18.22;100.00;99578.13;5041231;28;20228;-77
2022/08/03 04:21:31;;;;;;;5.03;4.63;;;;;;;18.09;100.00;99580.56;5048768;28;20321;-76
2022/08/03 04:24:00;;;;;;;6.23;4.63;;;;;;;17.99;100.00;99581.38;5044656;28;20221;-79
2022/08/03 04:26:30;;;;;;;4.80;4.40;;;;;;;17.94;100.00;99575.94;5031489;28;20234;-79
2022/08/03 04:28:57;;;;;;;5.07;4.67;;;;;;;17.94;100.00;99582.16;5048546;28;20235;-79
2022/08/03 04:31:24;;;;;;;5.07;4.60;;;;;;;17.97;100.00;99578.91;5045910;28;20262;-78
2022/08/03 04:33:52;;;;;;;5.10;4.70;;;;;;;17.99;100.00;99578.66;5047739;28;20973;-78
2022/08/03 04:36:24;;;;;;;5.07;4.67;;;;;;;18.13;100.00;99587.88;5046600;28;20717;-79
2022/08/03 04:38:54;;;;;;;4.70;4.40;;;;;;;18.27;100.00;99585.47;5049994;28;20226;-79
2022/08/03 04:41:23;;;;;;;4.23;3.90;;;;;;;18.37;100.00;99578.16;5047048;28;20234;-78
2022/08/03 04:43:53;;;;;;;5.00;4.50;;;;;;;18.46;100.00;99587.38;5046504;28;20235;-78
2022/08/03 04:46:22;;;;;;;4.70;4.30;;;;;;;18.57;100.00;99584.69;5047873;28;20251;-79
2022/08/03 04:48:49;;;;;;;4.90;4.50;;;;;;;18.69;100.00;99593.34;5053702;28;20229;-79
2022/08/03 04:51:16;;;;;;;4.50;4.10;;;;;;;18.86;100.00;99593.84;5052419;28;20236;-79
2022/08/03 04:53:43;;;;;;;4.40;4.10;;;;;;;19.02;100.00;99589.19;5052491;28;20646;-79
2022/08/03 04:56:09;;;;;;;4.37;4.07;;;;;;;19.17;100.00;99584.56;5051438;28;20255;-78
2022/08/03 04:58:36;;;;;;;4.00;3.77;;;;;;;19.33;100.00;99586.09;5050734;28;20818;-79
2022/08/03 05:01:02;;;;;;;4.23;3.83;;;;;;;19.47;100.00;99591.78;5054202;28;20230;-79
2022/08/03 05:03:30;;;;;;;5.33;4.03;;;;;;;19.59;100.00;99591.47;5051943;28;20323;-78
2022/08/03 05:05:57;;;;;;;4.10;3.80;;;;;;;19.71;100.00;99594.66;5054456;28;20789;-79
2022/08/03 05:08:36;;;;;;;4.00;3.70;;;;;;;19.85;100.00;99587.50;5049279;28;20273;-78
2022/08/03 05:11:14;;;;;;;4.57;4.00;;;;;;;20.01;100.00;99594.50;5050157;28;20245;-79
2022/08/03 05:13:41;;;;;;;3.90;3.60;;;;;;;20.16;100.00;99601.72;5052168;28;20283;-78
2022/08/03 05:16:07;;;;;;;4.13;3.80;;;;;;;20.33;100.00;99604.91;5056941;28;20237;-80
2022/08/03 05:18:34;;;;;;;4.07;3.63;;;;;;;20.43;100.00;99601.28;5052761;28;20226;-79
2022/08/03 05:21:01;;;;;;;4.13;3.80;;;;;;;20.55;100.00;99596.28;5058281;28;20228;-78
2022/08/03 05:23:28;;;;;;;4.10;3.70;;;;;;;20.67;100.00;99593.97;5055513;28;20235;-78
2022/08/03 05:25:55;;;;;;;3.90;3.60;;;;;;;20.79;100.00;99597.13;5057373;28;20233;-79
2022/08/03 05:28:22;;;;;;;4.03;3.47;;;;;;;20.97;100.00;99606.50;5049536;28;20730;-80
2022/08/03 05:30:48;;;;;;;3.90;3.60;;;;;;;21.06;100.00;99602.84;5055599;28;20232;-79
2022/08/03 05:33:15;;;;;;;3.60;3.30;;;;;;;21.18;100.00;99607.13;5054658;28;20324;-78
2022/08/03 05:35:42;;;;;;;3.87;3.37;;;;;;;21.30;100.00;99599.34;5052937;28;20773;-79
2022/08/03 05:38:28;;;;;;;3.97;3.67;;;;;;;21.43;100.00;99609.53;5053077;28;20313;-79
2022/08/03 05:41:03;;;;;;;5.63;3.40;;;;;;;21.56;100.00;99608.81;5050807;28;20729;-78
2022/08/03 05:43:53;;;;;;;3.60;3.30;;;;;;;21.74;100.00;99615.44;5049322;28;20232;-79
2022/08/03 05:46:20;;;;;;;3.60;3.37;;;;;;;21.89;100.00;99610.56;5053520;28;20272;-81
2022/08/03 05:48:47;;;;;;;4.20;3.08;;;;;;;22.06;100.00;99615.56;5052631;28;20236;-79
2022/08/03 05:51:14;;;;;;;3.50;3.20;;;;;;;22.23;100.00;99618.56;5053332;28;20249;-78
2022/08/03 05:53:41;;;;;;;3.50;3.30;;;;;;;22.39;100.00;99628.16;5052339;28;20247;-81
2022/08/03 05:56:09;;;;;;;3.55;3.35;;;;;;;22.49;100.00;99627.16;5055816;28;20217;-79
2022/08/03 05:58:45;;;;;;;3.70;3.40;;;;;;;22.61;100.00;99615.78;5050984;28;20257;-79
2022/08/03 06:01:14;;;;;;;3.22;3.00;;;;;;;22.69;100.00;99623.28;5047872;28;20225;-78
2022/08/03 06:03:41;;;;;;;3.45;3.15;;;;;;;22.89;100.00;99620.22;5052027;28;20230;-78
2022/08/03 06:06:08;;;;;;;3.90;3.45;;;;;;;23.03;100.00;99621.06;5048791;28;20227;-78
2022/08/03 06:08:35;;;;;;;5.60;3.08;;;;;;;23.14;100.00;99613.50;5052316;28;20261;-78
2022/08/03 06:11:02;;;;;;;3.38;2.90;;;;;;;23.23;100.00;99615.22;5055690;28;20676;-79
2022/08/03 06:13:29;;;;;;;3.97;3.17;;;;;;;23.35;100.00;99620.16;5050151;28;20229;-79
2022/08/03 06:15:55;;;;;;;3.20;3.00;;;;;;;23.48;100.00;99611.19;5052036;28;20316;-79
2022/08/03 06:18:23;;;;;;;3.00;2.80;;;;;;;23.56;100.00;99613.19;5053660;28;20325;-79
2022/08/03 06:20:50;;;;;;;3.42;3.00;;;;;;;23.65;100.00;99607.84;5057084;28;20217;-79
2022/08/03 06:23:18;;;;;;;3.88;3.38;;;;;;;23.80;100.00;99612.94;5057500;28;20238;-78
2022/08/03 06:25:45;;;;;;;3.22;2.92;;;;;;;23.88;100.00;99611.44;5044750;28;20717;-79
2022/08/03 06:28:13;;;;;;;5.20;3.50;;;;;;;24.01;100.00;99616.06;5053501;28;20241;-78
2022/08/03 06:31:00;;;;;;;3.17;2.78;;;;;;;24.11;100.00;99613.09;5062183;28;20240;-78
2022/08/03 06:33:27;;;;;;;3.47;2.70;;;;;;;24.21;100.00;99610.16;5060560;28;20253;-78
2022/08/03 06:36:13;;;;;;;6.00;3.17;;;;;;;24.37;100.00;99616.88;5051810;28;20239;-79
2022/08/03 06:38:40;;;;;;;4.15;3.03;;;;;;;24.43;100.00;99609.34;5057413;28;20323;-78
2022/08/03 06:41:07;;;;;;;4.00;3.05;;;;;;;24.60;100.00;99617.69;5058596;28;20373;-78
2022/08/03 06:43:36;;;;;;;2.95;2.67;;;;;;;24.72;96.98;99609.72;5051280;28;20585;-78
2022/08/03 06:46:04;;;;;;;3.90;2.97;;;;;;;24.87;92.14;99616.78;5050480;28;20233;-78
2022/08/03 06:48:31;;;;;;;3.22;2.92;;;;;;;24.98;88.85;99618.91;5051871;28;20235;-81
2022/08/03 06:50:58;;;;;;;3.47;2.83;;;;;;;25.12;88.90;99623.47;5053528;28;20249;-81
2022/08/03 06:53:24;;;;;;;2.80;2.55;;;;;;;25.27;88.93;99614.84;5051875;28;20241;-81
2022/08/03 06:55:51;;;;;;;3.47;2.78;;;;;;;25.29;86.44;99612.59;5094971;28;20315;-79
2022/08/03 06:58:21;;;;;;;3.03;2.72;;;;;;;25.42;83.66;99619.91;5056423;28;20334;-79
2022/08/03 07:00:48;;;;;;;5.10;3.00;;;;;;;25.60;81.05;99618.88;5060822;28;20753;-80
2022/08/03 07:03:14;;;;;;;5.82;3.28;;;;;;;25.75;77.07;99607.44;5061219;28;20262;-81
2022/08/03 07:05:42;;;;;;;4.60;2.92;;;;;;;25.89;74.44;99612.78;5057160;28;20312;-80
2022/08/03 07:08:11;;;;;;;3.65;3.25;;;;;;;26.01;73.34;99617.63;5058385;28;20236;-81
2022/08/03 07:10:38;;;;;;;3.50;3.20;;;;;;;26.01;70.96;99609.41;5053092;28;20236;-80
2022/08/03 07:13:05;;;;;;;4.20;3.30;;;;;;;26.04;71.40;99609.56;5046686;28;20248;-80
2022/08/03 07:15:32;;;;;;;3.50;3.20;;;;;;;26.08;72.66;99613.28;5036882;28;20590;-79
2022/08/03 07:18:18;;;;;;;3.50;3.25;;;;;;;26.29;66.53;99617.03;5047365;28;20764;-78
2022/08/03 07:20:59;;;;;;;3.22;2.92;;;;;;;26.45;63.10;99617.34;5041152;28;20255;-79
2022/08/03 07:23:25;;;;;;;3.65;2.90;;;;;;;26.57;63.22;99611.19;5052074;28;21412;-81
2022/08/03 07:25:52;;;;;;;3.60;3.22;;;;;;;26.67;62.21;99611.66;5040386;28;20788;-79
2022/08/03 07:28:19;;;;;;;4.15;3.03;;;;;;;26.82;60.79;99612.28;5051432;28;20237;-79
2022/08/03 07:30:46;;;;;;;3.05;2.85;;;;;;;26.85;59.24;99617.09;5056701;28;20657;-79
2022/08/03 07:33:13;;;;;;;2.97;2.78;;;;;;;26.98;60.51;99621.63;5055348;28;20726;-79
2022/08/03 07:35:40;;;;;;;4.85;3.28;;;;;;;27.10;59.45;99619.00;5057727;28;20917;-80
2022/08/03 07:38:07;;;;;;;3.20;2.90;;;;;;;27.19;56.75;99614.28;5049153;28;20320;-78
2022/08/03 07:40:34;;;;;;;2.75;2.55;;;;;;;27.25;56.83;99603.91;5049294;28;20320;-78
2022/08/03 07:43:02;;;;;;;3.08;2.70;;;;;;;27.41;51.87;99597.50;5051627;28;20229;-79
2022/08/03 07:45:30;;;;;;;2.88;2.53;;;;;;;27.57;50.72;99606.03;5049681;28;20304;-79
2022/08/03 07:47:56;;;;;;;3.63;2.53;;;;;;;27.75;50.08;99612.25;5049019;28;20254;-79
2022/08/03 07:50:23;;;;;;;3.13;2.88;;;;;;;27.70;49.29;99606.94;5058853;28;20875;-79
2022/08/03 07:52:54;;;;;;;3.63;2.90;;;;;;;27.84;49.06;99602.78;5058843;28;20786;-78
2022/08/03 07:55:23;;;;;;;3.33;2.90;;;;;;;27.99;48.26;99595.88;5052908;28;20229;-79
2022/08/03 07:58:01;;;;;;;3.80;2.63;;;;;;;27.97;48.38;99600.91;5057842;28;20344;-79
2022/08/03 08:00:28;;;;;;;3.03;2.80;;;;;;;28.08;48.76;99598.56;5055170;28;20239;-78
2022/08/03 08:02:54;;;;;;;3.17;2.60;;;;;;;28.20;48.09;99595.91;5055001;28;20231;-78
2022/08/03 08:05:21;;;;;;;4.25;2.35;;;;;;;28.27;44.62;99593.41;5053315;28;20233;-79
2022/08/03 08:07:48;;;;;;;2.97;2.70;;;;;;;28.27;44.98;99594.22;5056090;28;20225;-78
2022/08/03 08:10:17;;;;;;;3.25;2.50;;;;;;;28.43;45.24;99589.69;5041716;28;20242;-79
2022/08/03 08:12:43;;;;;;;2.60;2.40;;;;;;;28.36;45.27;99589.44;5039767;28;20233;-78
2022/08/03 08:15:10;;;;;;;4.13;2.90;;;;;;;28.58;45.40;99581.94;5040369;28;20226;-79
2022/08/03 08:17:49;;;;;;;2.50;2.20;;;;;;;28.61;44.96;99586.75;5039746;28;20716;-78
2022/08/03 08:20:19;;;;;;;2.55;2.35;;;;;;;28.66;44.12;99592.06;5038778;28;20255;-79
2022/08/03 08:22:58;;;;;;;2.35;2.15;;;;;;;28.46;42.68;99586.25;5051539;28;20233;-79
2022/08/03 08:25:28;;;;;;;2.10;2.00;;;;;;;28.80;41.48;99595.34;5054438;28;20226;-78
2022/08/03 08:27:55;;;;;;;2.33;2.13;;;;;;;28.79;41.64;99597.28;5051813;28;20221;-78
2022/08/03 08:30:41;;;;;;;3.15;2.17;;;;;;;28.99;41.47;99592.03;5056770;28;20225;-77
2022/08/03 08:33:08;;;;;;;2.30;2.20;;;;;;;29.08;42.88;99592.75;5060206;28;20220;-77
2022/08/03 08:35:50;;;;;;;3.78;2.40;;;;;;;29.18;40.80;99587.59;5052189;28;20225;-77
2022/08/03 08:38:16;;;;;;;2.40;2.20;;;;;;;29.20;41.05;99587.25;5052868;28;20619;-78
2022/08/03 08:40:43;;;;;;;2.47;2.20;;;;;;;29.17;41.26;99579.66;5049016;28;20728;-79
2022/08/03 08:43:10;;;;;;;2.53;2.40;;;;;;;29.27;40.05;99591.03;5056488;28;20228;-79
2022/08/03 08:45:36;;;;;;;3.22;2.40;;;;;;;29.40;39.98;99594.63;5051390;28;20225;-78
2022/08/03 08:48:04;;;;;;;2.28;2.17;;;;;;;29.42;40.16;99588.78;5064053;28;20627;-78
2022/08/03 08:50:36;;;;;;;2.50;2.30;;;;;;;29.33;39.67;99588.09;5058670;28;20228;-79
2022/08/03 08:53:06;;;;;;;2.33;2.20;;;;;;;29.46;40.73;99584.97;5061276;28;20762;-78
2022/08/03 08:55:45;;;;;;;2.20;2.10;;;;;;;29.52;41.34;99591.88;5052114;28;20631;-79
2022/08/03 08:58:29;;;;;;;3.10;2.00;;;;;;;29.56;39.77;99583.69;5063916;28;20307;-79
2022/08/03 09:00:55;;;;;;;3.25;2.20;;;;;;;29.55;39.37;99585.66;5053727;28;20230;-78
2022/08/03 09:03:23;;;;;;;2.30;2.10;;;;;;;29.56;40.06;99583.69;5055331;28;20921;-79
2022/08/03 09:05:59;;;;;;;2.30;2.10;;;;;;;29.62;41.86;99579.56;5046803;28;20238;-78
2022/08/03 09:08:26;;;;;;;2.58;2.28;;;;;;;29.82;39.10;99584.13;5051972;28;20730;-80
2022/08/03 09:10:52;;;;;;;2.25;2.15;;;;;;;29.93;38.02;99576.19;5053297;28;20780;-80
2022/08/03 09:13:19;;;;;;;2.63;2.20;;;;;;;30.00;39.30;99571.66;5061654;28;20252;-80
2022/08/03 09:15:46;;;;;;;2.47;2.20;;;;;;;30.11;39.41;99569.22;5052607;28;20312;-80
2022/08/03 09:18:30;;;;;;;2.80;2.25;;;;;;;29.91;39.41;99578.50;5050642;28;20768;-80
2022/08/03 09:21:30;;;;;;;2.50;2.30;;;;;;;29.93;39.88;99578.94;5053211;28;20221;-78
2022/08/03 09:24:00;;;;;;;3.85;2.10;;;;;;;30.16;38.73;99568.97;5051446;28;20240;-81
2022/08/03 09:26:30;;;;;;;2.03;1.92;;;;;;;30.22;38.00;99570.34;5054994;28;20286;-78
2022/08/03 09:29:06;;;;;;;2.30;2.10;;;;;;;30.36;37.86;99570.75;5055009;28;20221;-81
2022/08/03 09:31:43;;;;;;;2.08;1.95;;;;;;;30.47;36.49;99566.31;5056389;28;20225;-81
2022/08/03 09:34:16;;;;;;;2.20;2.10;;;;;;;30.59;36.13;99566.28;5052766;28;20839;-78
2022/08/03 09:36:47;;;;;;;2.00;1.90;;;;;;;30.63;35.51;99562.81;5055397;28;20597;-79
2022/08/03 09:39:18;;;;;;;2.17;1.63;;;;;;;30.75;34.58;99569.06;5059180;28;20249;-80
2022/08/03 09:42:08;;;;;;;2.90;1.90;;;;;;;30.69;34.26;99564.16;5059405;28;20283;-78
2022/08/03 09:44:41;;;;;;;3.28;1.90;;;;;;;30.83;34.24;99568.09;5059499;28;20292;-79
2022/08/03 09:47:15;;;;;;;2.63;1.90;;;;;;;30.89;34.52;99565.88;5056756;28;20229;-78
2022/08/03 09:50:00;;;;;;;1.83;1.60;;;;;;;30.97;33.69;99559.38;5057427;28;20636;-79
2022/08/03 09:52:35;;;;;;;1.90;1.80;;;;;;;30.93;33.46;99556.50;5049637;28;20241;-79
2022/08/03 09:55:14;;;;;;;2.13;1.90;;;;;;;30.94;33.04;99543.47;5048069;28;20252;-78
2022/08/03 09:58:05;;;;;;;1.65;1.55;;;;;;;30.95;33.56;99545.88;5052812;28;20704;-77
2022/08/03 10:00:52;;;;;;;1.92;1.65;;;;;;;31.12;32.70;99542.00;5051471;28;20234;-81
2022/08/03 10:03:20;;;;;;;1.70;1.60;;;;;;;31.06;32.28;99554.47;5047554;28;20236;-80
2022/08/03 10:05:46;;;;;;;2.40;1.58;;;;;;;31.10;31.44;99543.50;5048808;28;20248;-81
2022/08/03 10:08:18;;;;;;;2.17;1.80;;;;;;;31.13;30.02;99546.34;5049863;28;20225;-80
2022/08/03 10:10:47;;;;;;;1.80;1.70;;;;;;;31.18;30.42;99537.78;5049607;28;20234;-79
2022/08/03 10:13:17;;;;;;;2.38;1.77;;;;;;;31.25;31.65;99534.38;5049170;28;20233;-79
2022/08/03 10:15:45;;;;;;;1.90;1.80;;;;;;;31.39;31.61;99535.53;5047804;28;20724;-79
2022/08/03 10:18:32;;;;;;;3.13;1.75;;;;;;;31.32;31.71;99535.34;5050256;28;20320;-79
2022/08/03 10:21:02;;;;;;;1.77;1.67;;;;;;;31.44;31.66;99526.94;5049613;28;20236;-79
2022/08/03 10:23:33;;;;;;;1.73;1.63;;;;;;;31.58;31.07;99525.69;5049954;28;20228;-78
2022/08/03 10:26:02;;;;;;;2.35;1.60;;;;;;;31.70;30.98;99525.53;5051516;28;20275;-78
2022/08/03 10:28:34;;;;;;;2.15;1.60;;;;;;;31.91;30.40;99526.00;5050976;28;20229;-79
2022/08/03 10:31:01;;;;;;;3.35;1.80;;;;;;;31.77;30.51;99520.97;5054144;28;20251;-79
2022/08/03 10:33:30;;;;;;;2.13;2.03;;;;;;;31.85;31.32;99524.69;5052345;28;20229;-80
2022/08/03 10:36:17;;;;;;;1.92;1.83;;;;;;;31.94;30.75;99522.50;5049472;28;20314;-78
2022/08/03 10:38:51;;;;;;;1.90;1.80;;;;;;;32.10;30.46;99514.16;5052304;28;20221;-79
2022/08/03 10:41:20;;;;;;;4.30;1.95;;;;;;;32.18;30.78;99521.44;5050825;28;20720;-78
2022/08/03 10:44:03;;;;;;;2.92;2.03;;;;;;;32.23;30.65;99510.88;5051435;28;20245;-79
2022/08/03 10:46:30;;;;;;;1.85;1.75;;;;;;;31.63;31.29;99512.38;5034983;28;20260;-79
2022/08/03 10:48:57;;;;;;;2.10;1.70;;;;;;;31.35;32.19;99504.19;5050907;28;20336;-79
2022/08/03 10:51:29;;;;;;;2.20;2.03;;;;;;;31.64;32.69;99508.41;5050470;28;20922;-79
2022/08/03 10:53:56;;;;;;;2.25;1.70;;;;;;;31.73;29.75;99500.69;5048368;28;20221;-79
2022/08/03 10:59:44;;;;;;;1.98;1.77;;;;;;;32.28;30.44;99499.47;5048159;28;20303;-79
2022/08/03 11:02:14;;;;;;;1.85;1.70;;;;;;;32.36;29.92;99499.59;5053212;28;20233;-80
2022/08/03 11:04:41;;;;;;;2.20;1.73;;;;;;;32.41;28.90;99496.53;5050036;28;20568;-79
2022/08/03 11:07:14;;;;;;;1.80;1.70;;;;;;;32.59;28.93;99486.53;5041351;28;20249;-78
2022/08/03 11:09:43;;;;;;;1.80;1.70;;;;;;;32.69;29.37;99489.53;5053425;28;20324;-78
2022/08/03 11:12:31;;;;;;;1.55;1.45;;;;;;;32.84;27.28;99478.69;5052541;28;20270;-79
2022/08/03 11:15:01;;;;;;;2.53;1.60;;;;;;;32.99;26.83;99478.53;5048057;28;20654;-79
2022/08/03 11:17:27;;;;;;;1.88;1.40;;;;;;;33.11;25.31;99470.00;5061157;28;20510;-78
2022/08/03 11:19:54;;;;;;;1.55;1.45;;;;;;;33.19;26.33;99480.06;5038830;28;20249;-79
2022/08/03 11:22:24;;;;;;;1.70;1.60;;;;;;;33.40;26.70;99479.59;5051112;28;20240;-79
2022/08/03 11:24:53;;;;;;;1.73;1.63;;;;;;;33.47;24.49;99487.19;5048392;28;20304;-79
2022/08/03 11:27:28;;;;;;;2.00;1.52;;;;;;;33.50;24.89;99480.91;5055273;28;20241;-78
2022/08/03 11:29:57;;;;;;;1.52;1.42;;;;;;;33.60;25.15;99480.22;5045999;28;20234;-78
2022/08/03 11:32:39;;;;;;;1.75;1.50;;;;;;;33.70;24.38;99481.56;5032928;28;20764;-78
2022/08/03 11:35:35;;;;;;;1.60;1.50;;;;;;;33.80;24.34;99478.94;5045367;28;20233;-78
2022/08/03 11:38:03;;;;;;;1.63;1.52;;;;;;;33.80;24.46;99469.81;5052432;28;20237;-78
2022/08/03 11:40:50;;;;;;;2.50;1.25;;;;;;;33.79;24.12;99470.97;5052582;28;20229;-78
2022/08/03 11:43:22;;;;;;;2.35;1.50;;;;;;;33.72;25.28;99466.16;5051540;28;20237;-79
2022/08/03 11:45:58;;;;;;;1.80;1.70;;;;;;;33.85;24.49;99469.47;5065864;28;20233;-79
2022/08/03 11:48:43;;;;;;;2.97;1.67;;;;;;;34.04;24.14;99466.53;5047750;28;20237;-79
2022/08/03 11:51:21;;;;;;;1.48;1.40;;;;;;;34.18;23.58;99469.50;5042386;28;20249;-80
2022/08/03 11:53:55;;;;;;;1.50;1.40;;;;;;;34.28;22.17;99465.22;5036842;28;20236;-79
2022/08/03 11:56:22;;;;;;;1.60;1.50;;;;;;;34.23;24.58;99471.13;5051943;28;20237;-79